createdAt,value
2022-11-20T00:00:28.439Z,98217.00
2022-11-20T00:02:59.321Z,98216.00
2022-11-20T00:05:30.174Z,98206.00
2022-11-20T00:08:01.094Z,98217.00
2022-11-20T00:10:32.153Z,98214.00
2022-11-20T00:13:03.027Z,98216.00
2022-11-20T00:15:34.795Z,98223.00
2022-11-20T00:18:05.741Z,98216.00
2022-11-20T00:20:36.608Z,98219.00
2022-11-20T00:23:08.062Z,98213.00
2022-11-20T00:25:38.888Z,98209.00
2022-11-20T00:28:09.757Z,98218.00
2022-11-20T00:30:40.626Z,98218.00
2022-11-20T00:33:11.492Z,98209.00
2022-11-20T00:35:42.313Z,98209.00
2022-11-20T00:38:13.173Z,98206.00
2022-11-20T00:40:43.995Z,98209.00
2022-11-20T00:43:14.851Z,98204.00
2022-11-20T00:45:45.701Z,98208.00
2022-11-20T00:48:16.563Z,98211.00
2022-11-20T00:50:47.389Z,98209.00
2022-11-20T00:53:18.291Z,98226.00
2022-11-20T00:56:07.384Z,98211.00
2022-11-20T00:58:41.067Z,98208.00
2022-11-20T01:01:16.195Z,98210.00
2022-11-20T01:03:50.077Z,98210.00
2022-11-20T01:06:29.870Z,98220.00
2022-11-20T01:09:07.779Z,98214.00
2022-11-20T01:11:42.602Z,98213.00
2022-11-20T01:14:18.206Z,98211.00
2022-11-20T01:16:53.210Z,98215.00
2022-11-20T01:19:25.320Z,98216.00
2022-11-20T01:21:56.368Z,98221.00
2022-11-20T01:24:27.238Z,98224.00
2022-11-20T01:26:58.117Z,98228.00
2022-11-20T01:29:29.101Z,98234.00
2022-11-20T01:32:00.197Z,98237.00
2022-11-20T01:34:31.190Z,98224.00
2022-11-20T01:37:02.032Z,98236.00
2022-11-20T01:39:32.930Z,98239.00
2022-11-20T01:42:22.697Z,98245.00
2022-11-20T01:45:01.086Z,98245.00
2022-11-20T01:47:44.540Z,98232.00
2022-11-20T01:50:26.058Z,98231.00
2022-11-20T01:53:02.901Z,98230.00
2022-11-20T01:55:45.875Z,98231.00
2022-11-20T01:58:21.638Z,98222.00
2022-11-20T02:00:52.669Z,98230.00
2022-11-20T02:03:24.077Z,98227.00
2022-11-20T02:06:22.102Z,98220.00
2022-11-20T02:08:53.886Z,98224.00
2022-11-20T02:11:24.823Z,98221.00
2022-11-20T02:13:56.818Z,98232.00
2022-11-20T02:16:36.800Z,98228.00
2022-11-20T02:19:17.026Z,98226.00
2022-11-20T02:22:20.910Z,98231.00
2022-11-20T02:24:52.645Z,98234.00
2022-11-20T02:27:23.832Z,98234.00
2022-11-20T02:30:03.788Z,98262.00
2022-11-20T02:32:39.194Z,98235.00
2022-11-20T02:35:21.059Z,98233.00
2022-11-20T02:37:56.249Z,98219.00
2022-11-20T02:40:27.245Z,98221.00
2022-11-20T02:42:58.528Z,98223.00
2022-11-20T02:45:29.377Z,98222.00
2022-11-20T02:48:00.729Z,98219.00
2022-11-20T02:50:31.752Z,98211.00
2022-11-20T02:53:02.635Z,98226.00
2022-11-20T02:55:33.745Z,98220.00
2022-11-20T02:58:04.675Z,98218.00
2022-11-20T03:00:36.439Z,98217.00
2022-11-20T03:03:07.296Z,98221.00
2022-11-20T03:05:38.199Z,98218.00
2022-11-20T03:08:09.069Z,98219.00
2022-11-20T03:10:39.914Z,98225.00
2022-11-20T03:13:10.783Z,98221.00
2022-11-20T03:15:41.602Z,98231.00
2022-11-20T03:18:14.546Z,98236.00
2022-11-20T03:20:45.379Z,98229.00
2022-11-20T03:23:16.273Z,98219.00
2022-11-20T03:25:47.101Z,98209.00
2022-11-20T03:28:17.980Z,98219.00
2022-11-20T03:30:49.003Z,98205.00
2022-11-20T03:33:19.863Z,98214.00
2022-11-20T03:35:50.694Z,98204.00
2022-11-20T03:38:21.563Z,98206.00
2022-11-20T03:40:52.402Z,98201.00
2022-11-20T03:43:23.261Z,98211.00
2022-11-20T03:45:54.474Z,98209.00
2022-11-20T03:48:25.973Z,98206.00
2022-11-20T03:51:15.469Z,98207.00
2022-11-20T03:53:48.230Z,98209.00
2022-11-20T03:56:23.624Z,98198.00
2022-11-20T03:58:55.072Z,98203.00
2022-11-20T04:01:33.817Z,98200.00
2022-11-20T04:04:06.072Z,98199.00
2022-11-20T04:06:38.962Z,98205.00
2022-11-20T04:09:09.819Z,98209.00
2022-11-20T04:11:41.821Z,98208.00
2022-11-20T04:14:16.409Z,98207.00
2022-11-20T04:16:47.306Z,98202.00
2022-11-20T04:19:18.548Z,98209.00
2022-11-20T04:21:49.626Z,98194.00
2022-11-20T04:24:20.492Z,98192.00
2022-11-20T04:26:51.350Z,98196.00
2022-11-20T04:29:22.372Z,98194.00
2022-11-20T04:31:53.419Z,98203.00
2022-11-20T04:34:24.259Z,98199.00
2022-11-20T04:36:55.095Z,98193.00
2022-11-20T04:39:25.988Z,98198.00
2022-11-20T04:42:15.514Z,98190.00
2022-11-20T04:44:46.362Z,98197.00
2022-11-20T04:47:17.173Z,98195.00
2022-11-20T04:49:48.691Z,98197.00
2022-11-20T04:52:19.860Z,98194.00
2022-11-20T04:54:53.816Z,98197.00
2022-11-20T04:57:24.708Z,98203.00
2022-11-20T04:59:55.603Z,98197.00
2022-11-20T05:02:26.786Z,98195.00
2022-11-20T05:04:57.658Z,98201.00
2022-11-20T05:07:28.558Z,98184.00
2022-11-20T05:09:59.461Z,98196.00
2022-11-20T05:12:30.394Z,98196.00
2022-11-20T05:15:01.472Z,98187.00
2022-11-20T05:17:32.567Z,98185.00
2022-11-20T05:20:03.690Z,98193.00
2022-11-20T05:22:34.523Z,98198.00
2022-11-20T05:25:06.078Z,98192.00
2022-11-20T05:27:37.191Z,98197.00
2022-11-20T05:30:09.286Z,98195.00
2022-11-20T05:32:40.190Z,98214.00
2022-11-20T05:35:11.077Z,98190.00
2022-11-20T05:37:41.909Z,98188.00
2022-11-20T05:40:13.482Z,98188.00
2022-11-20T05:42:44.706Z,98187.00
2022-11-20T05:45:15.824Z,98192.00
2022-11-20T05:47:46.728Z,98191.00
2022-11-20T05:50:17.676Z,98186.00
2022-11-20T05:52:48.551Z,98183.00
2022-11-20T05:55:19.425Z,98195.00
2022-11-20T05:57:50.285Z,98188.00
2022-11-20T06:00:21.305Z,98191.00
2022-11-20T06:02:52.224Z,98188.00
2022-11-20T06:05:23.099Z,98183.00
2022-11-20T06:07:54.057Z,98204.00
2022-11-20T06:10:24.919Z,98196.00
2022-11-20T06:12:59.127Z,98193.00
2022-11-20T06:15:30.048Z,98194.00
2022-11-20T06:18:00.920Z,98190.00
2022-11-20T06:20:31.800Z,98187.00
2022-11-20T06:23:02.618Z,98179.00
2022-11-20T06:25:33.510Z,98182.00
2022-11-20T06:28:04.527Z,98174.00
2022-11-20T06:30:36.105Z,98179.00
2022-11-20T06:33:06.929Z,98177.00
2022-11-20T06:35:37.810Z,98170.00
2022-11-20T06:38:08.677Z,98175.00
2022-11-20T06:40:42.308Z,98171.00
2022-11-20T06:43:13.213Z,98170.00
2022-11-20T06:45:44.047Z,98173.00
2022-11-20T06:48:14.941Z,98184.00
2022-11-20T06:50:45.796Z,98178.00
2022-11-20T06:53:17.123Z,98185.00
2022-11-20T06:55:49.280Z,98176.00
2022-11-20T06:58:20.288Z,98185.00
2022-11-20T07:00:51.147Z,98177.00
2022-11-20T07:03:22.200Z,98189.00
2022-11-20T07:05:56.023Z,98192.00
2022-11-20T07:08:27.219Z,98198.00
2022-11-20T07:11:00.970Z,98195.00
2022-11-20T07:13:31.973Z,98199.00
2022-11-20T07:16:07.355Z,98201.00
2022-11-20T07:18:38.327Z,98197.00
2022-11-20T07:21:11.088Z,98194.00
2022-11-20T07:23:42.202Z,98194.00
2022-11-20T07:26:13.041Z,98198.00
2022-11-20T07:28:46.274Z,98198.00
2022-11-20T07:31:19.399Z,98203.00
2022-11-20T07:33:51.008Z,98212.00
2022-11-20T07:36:21.911Z,98209.00
2022-11-20T07:38:52.758Z,98209.00
2022-11-20T07:41:23.673Z,98210.00
2022-11-20T07:43:54.686Z,98214.00
2022-11-20T07:46:25.517Z,98212.00
2022-11-20T07:48:57.089Z,98211.00
2022-11-20T07:51:28.382Z,98207.00
2022-11-20T07:53:59.231Z,98214.00
2022-11-20T07:56:30.085Z,98218.00
2022-11-20T07:59:01.109Z,98212.00
2022-11-20T08:01:31.949Z,98218.00
2022-11-20T08:04:05.070Z,98217.00
2022-11-20T08:06:36.649Z,98214.00
2022-11-20T08:09:07.539Z,98221.00
2022-11-20T08:11:56.721Z,98232.00
2022-11-20T08:14:30.754Z,98229.00
2022-11-20T08:17:01.645Z,98233.00
2022-11-20T08:19:32.610Z,98227.00
2022-11-20T08:22:03.463Z,98221.00
2022-11-20T08:24:34.371Z,98231.00
2022-11-20T08:27:05.208Z,98235.00
2022-11-20T08:29:36.163Z,98230.00
2022-11-20T08:32:07.015Z,98228.00
2022-11-20T08:34:37.911Z,98235.00
2022-11-20T08:37:08.755Z,98230.00
2022-11-20T08:39:39.638Z,98232.00
2022-11-20T08:42:10.819Z,98228.00
2022-11-20T08:44:41.666Z,98226.00
2022-11-20T08:47:14.406Z,98231.00
2022-11-20T08:49:45.242Z,98228.00
2022-11-20T08:52:16.145Z,98237.00
2022-11-20T08:54:47.517Z,98235.00
2022-11-20T08:57:18.402Z,98240.00
2022-11-20T09:00:06.533Z,98238.00
2022-11-20T09:02:37.910Z,98252.00
2022-11-20T09:05:09.112Z,98245.00
2022-11-20T09:07:41.280Z,98244.00
2022-11-20T09:10:27.591Z,98248.00
2022-11-20T09:12:58.749Z,98242.00
2022-11-20T09:15:29.911Z,98253.00
2022-11-20T09:18:04.648Z,98246.00
2022-11-20T09:20:36.446Z,98245.00
2022-11-20T09:23:07.294Z,98249.00
2022-11-20T09:25:38.139Z,98265.00
2022-11-20T09:28:09.102Z,98262.00
2022-11-20T09:30:40.185Z,98260.00
2022-11-20T09:33:11.144Z,98259.00
2022-11-20T09:35:41.981Z,98260.00
2022-11-20T09:38:13.013Z,98263.00
2022-11-20T09:40:59.671Z,98262.00
2022-11-20T09:44:07.059Z,98289.00
2022-11-20T09:47:12.379Z,98273.00
2022-11-20T09:49:55.353Z,98272.00
2022-11-20T09:53:02.238Z,98279.00
2022-11-20T09:55:33.199Z,98270.00
2022-11-20T09:58:08.894Z,98267.00
2022-11-20T10:00:40.095Z,98273.00
2022-11-20T10:03:51.851Z,98278.00
2022-11-20T10:06:59.413Z,98269.00
2022-11-20T10:09:46.126Z,98282.00
2022-11-20T10:13:13.386Z,98274.00
2022-11-20T10:16:15.293Z,98287.00
2022-11-20T10:19:14.821Z,98284.00
2022-11-20T10:22:03.664Z,98292.00
2022-11-20T10:24:57.875Z,98286.00
2022-11-20T10:28:02.511Z,98279.00
2022-11-20T10:30:42.834Z,98296.00
2022-11-20T10:33:25.145Z,98290.00
2022-11-20T10:36:18.400Z,98299.00
2022-11-20T10:39:07.550Z,98306.00
2022-11-20T10:41:48.463Z,98302.00
2022-11-20T10:44:44.550Z,98300.00
2022-11-20T10:47:19.802Z,98298.00
2022-11-20T10:49:54.630Z,98300.00
2022-11-20T10:52:56.731Z,98321.00
2022-11-20T10:55:57.151Z,98303.00
2022-11-20T10:59:01.511Z,98302.00
2022-11-20T11:01:32.443Z,98294.00
2022-11-20T11:04:04.162Z,98291.00
2022-11-20T11:06:48.152Z,98282.00
2022-11-20T11:09:35.798Z,98274.00
2022-11-20T11:12:11.016Z,98282.00
2022-11-20T11:14:53.829Z,98273.00
2022-11-20T11:17:31.556Z,98294.00
2022-11-20T11:20:08.392Z,98268.00
2022-11-20T11:22:53.573Z,98258.00
2022-11-20T11:25:37.574Z,98249.00
2022-11-20T11:28:25.788Z,98239.00
2022-11-20T11:30:57.030Z,98234.00
2022-11-20T11:33:31.333Z,98238.00
2022-11-20T11:36:06.775Z,98228.00
2022-11-20T11:38:45.259Z,98235.00
2022-11-20T11:41:32.490Z,98223.00
2022-11-20T11:44:53.759Z,98216.00
2022-11-20T11:47:32.023Z,98209.00
2022-11-20T11:50:17.131Z,98212.00
2022-11-20T11:53:28.383Z,98191.00
2022-11-20T11:56:11.028Z,98186.00
2022-11-20T11:58:56.471Z,98185.00
2022-11-20T12:01:54.072Z,98190.00
2022-11-20T12:04:59.973Z,98191.00
2022-11-20T12:07:47.760Z,98183.00
2022-11-20T12:10:24.491Z,98189.00
2022-11-20T12:13:32.123Z,98180.00
2022-11-20T12:16:05.471Z,98185.00
2022-11-20T12:18:36.349Z,98173.00
2022-11-20T12:21:26.435Z,98170.00
2022-11-20T12:24:53.945Z,98167.00
2022-11-20T12:28:28.200Z,98175.00
2022-11-20T12:31:02.686Z,98168.00
2022-11-20T12:34:01.374Z,98190.00
2022-11-20T12:36:52.097Z,98168.00
2022-11-20T12:39:50.520Z,98168.00
2022-11-20T12:43:11.747Z,98162.00
2022-11-20T12:45:51.325Z,98165.00
2022-11-20T12:49:03.710Z,98164.00
2022-11-20T12:52:19.441Z,98172.00
2022-11-20T12:55:12.426Z,98176.00
2022-11-20T12:58:06.584Z,98169.00
2022-11-20T13:00:45.064Z,98165.00
2022-11-20T13:03:47.817Z,98167.00
2022-11-20T13:06:20.396Z,98162.00
2022-11-20T13:08:57.892Z,98161.00
2022-11-20T13:11:40.663Z,98162.00
2022-11-20T13:14:27.826Z,98171.00
2022-11-20T13:17:28.995Z,98171.00
2022-11-20T13:20:00.878Z,98168.00
2022-11-20T13:22:46.810Z,98169.00
2022-11-20T13:25:33.848Z,98168.00
2022-11-20T13:28:10.793Z,98163.00
2022-11-20T13:30:53.816Z,98157.00
2022-11-20T13:33:39.300Z,98162.00
2022-11-20T13:36:27.099Z,98147.00
2022-11-20T13:38:58.689Z,98138.00
2022-11-20T13:41:40.415Z,98140.00
2022-11-20T13:44:15.505Z,98141.00
2022-11-20T13:46:47.987Z,98139.00
2022-11-20T13:49:44.845Z,98137.00
2022-11-20T13:53:08.748Z,98130.00
2022-11-20T13:55:57.253Z,98123.00
2022-11-20T13:58:59.301Z,98139.00
2022-11-20T14:01:33.194Z,98144.00
2022-11-20T14:04:16.548Z,98145.00
2022-11-20T14:06:49.625Z,98152.00
2022-11-20T14:09:30.749Z,98148.00
2022-11-20T14:12:04.435Z,98142.00
2022-11-20T14:14:37.313Z,98156.00
2022-11-20T14:17:41.298Z,98156.00
2022-11-20T14:20:16.061Z,98142.00
2022-11-20T14:22:51.838Z,98142.00
2022-11-20T14:25:28.572Z,98145.00
2022-11-20T14:28:02.514Z,98138.00
2022-11-20T14:30:48.820Z,98149.00
2022-11-20T14:33:21.068Z,98147.00
2022-11-20T14:36:00.884Z,98155.00
2022-11-20T14:38:33.648Z,98145.00
2022-11-20T14:41:22.812Z,98145.00
2022-11-20T14:44:01.051Z,98135.00
2022-11-20T14:46:33.383Z,98127.00
2022-11-20T14:49:05.839Z,98148.00
2022-11-20T14:51:42.522Z,98129.00
2022-11-20T14:54:23.092Z,98147.00
2022-11-20T14:57:04.500Z,98112.00
2022-11-20T14:59:36.004Z,98107.00
2022-11-20T15:02:12.297Z,98097.00
2022-11-20T15:05:00.280Z,98096.00
2022-11-20T15:07:37.573Z,98087.00
2022-11-20T15:10:29.139Z,98096.00
2022-11-20T15:13:31.145Z,98089.00
2022-11-20T15:16:04.549Z,98083.00
2022-11-20T15:18:42.632Z,98086.00
2022-11-20T15:21:19.924Z,98083.00
2022-11-20T15:23:51.043Z,98083.00
2022-11-20T15:26:29.021Z,98082.00
2022-11-20T15:29:00.074Z,98080.00
2022-11-20T15:31:31.041Z,98084.00
2022-11-20T15:34:01.938Z,98078.00
2022-11-20T15:36:32.789Z,98086.00
2022-11-20T15:39:03.708Z,98092.00
2022-11-20T15:41:36.357Z,98085.00
2022-11-20T15:44:07.428Z,98066.00
2022-11-20T15:46:43.339Z,98080.00
2022-11-20T15:49:17.426Z,98068.00
2022-11-20T15:51:50.609Z,98074.00
2022-11-20T15:54:24.075Z,98070.00
2022-11-20T15:56:55.253Z,98074.00
2022-11-20T15:59:26.122Z,98087.00
2022-11-20T16:01:57.241Z,98069.00
2022-11-20T16:04:28.232Z,98066.00
2022-11-20T16:06:59.086Z,98057.00
2022-11-20T16:09:30.074Z,98063.00
2022-11-20T16:12:01.083Z,98068.00
2022-11-20T16:14:50.260Z,98059.00
2022-11-20T16:17:41.081Z,98060.00
2022-11-20T16:20:13.048Z,98053.00
2022-11-20T16:22:43.901Z,98053.00
2022-11-20T16:25:14.890Z,98060.00
2022-11-20T16:27:45.744Z,98056.00
2022-11-20T16:30:16.649Z,98056.00
2022-11-20T16:32:47.489Z,98059.00
2022-11-20T16:35:18.382Z,98052.00
2022-11-20T16:37:49.222Z,98058.00
2022-11-20T16:40:20.211Z,98056.00
2022-11-20T16:42:52.044Z,98049.00
2022-11-20T16:45:26.972Z,98045.00
2022-11-20T16:47:59.793Z,98042.00
2022-11-20T16:50:30.707Z,98044.00
2022-11-20T16:53:01.731Z,98043.00
2022-11-20T16:55:32.581Z,98043.00
2022-11-20T16:58:03.417Z,98045.00
2022-11-20T17:00:40.212Z,98041.00
2022-11-20T17:03:11.135Z,98034.00
2022-11-20T17:05:42.019Z,98030.00
2022-11-20T17:08:12.874Z,98029.00
2022-11-20T17:10:43.744Z,98024.00
2022-11-20T17:13:14.598Z,98021.00
2022-11-20T17:15:45.524Z,98021.00
2022-11-20T17:18:16.419Z,98025.00
2022-11-20T17:20:52.646Z,98015.00
2022-11-20T17:23:23.543Z,98042.00
2022-11-20T17:26:04.352Z,98016.00
2022-11-20T17:28:37.386Z,98026.00
2022-11-20T17:31:11.829Z,98031.00
2022-11-20T17:33:45.861Z,98014.00
2022-11-20T17:36:18.558Z,98032.00
2022-11-20T17:38:49.570Z,98008.00
2022-11-20T17:41:25.186Z,98008.00
2022-11-20T17:44:01.395Z,98010.00
2022-11-20T17:46:34.222Z,98000.00
2022-11-20T17:49:05.239Z,98005.00
2022-11-20T17:51:36.179Z,97999.00
2022-11-20T17:54:10.440Z,97999.00
2022-11-20T17:56:59.806Z,98000.00
2022-11-20T17:59:30.686Z,97993.00
2022-11-20T18:02:03.806Z,97995.00
2022-11-20T18:04:34.981Z,97986.00
2022-11-20T18:07:05.932Z,97982.00
2022-11-20T18:09:36.839Z,97975.00
2022-11-20T18:12:07.843Z,97972.00
2022-11-20T18:14:38.746Z,97977.00
2022-11-20T18:17:13.930Z,97975.00
2022-11-20T18:20:07.115Z,97980.00
2022-11-20T18:22:38.480Z,97982.00
2022-11-20T18:25:10.320Z,97967.00
2022-11-20T18:27:41.194Z,97972.00
2022-11-20T18:30:13.132Z,97965.00
2022-11-20T18:32:44.020Z,97953.00
2022-11-20T18:35:15.116Z,97947.00
2022-11-20T18:37:46.070Z,97946.00
2022-11-20T18:40:17.067Z,97943.00
2022-11-20T18:43:06.312Z,97940.00
2022-11-20T18:45:37.177Z,97935.00
2022-11-20T18:48:08.042Z,97930.00
2022-11-20T18:50:38.896Z,97949.00
2022-11-20T18:53:09.768Z,97961.00
2022-11-20T18:55:40.646Z,97965.00
2022-11-20T18:58:11.495Z,97968.00
2022-11-20T19:00:42.517Z,97967.00
2022-11-20T19:03:13.391Z,97957.00
2022-11-20T19:05:44.382Z,97962.00
2022-11-20T19:08:15.403Z,97934.00
2022-11-20T19:10:46.503Z,97945.00
2022-11-20T19:13:17.519Z,97945.00
2022-11-20T19:15:48.542Z,97947.00
2022-11-20T19:18:19.374Z,97945.00
2022-11-20T19:20:50.333Z,97939.00
2022-11-20T19:23:22.139Z,97951.00
2022-11-20T19:25:53.022Z,97957.00
2022-11-20T19:28:24.599Z,97948.00
2022-11-20T19:30:55.613Z,97947.00
2022-11-20T19:33:26.470Z,97946.00
2022-11-20T19:35:58.601Z,97924.00
2022-11-20T19:38:29.477Z,97935.00
2022-11-20T19:41:00.598Z,97933.00
2022-11-20T19:43:31.744Z,97931.00
2022-11-20T19:46:03.315Z,97919.00
2022-11-20T19:48:36.845Z,97928.00
2022-11-20T19:51:20.834Z,97921.00
2022-11-20T19:53:52.637Z,97924.00
2022-11-20T19:56:24.797Z,97911.00
2022-11-20T19:58:56.951Z,97943.00
2022-11-20T20:01:31.249Z,97916.00
2022-11-20T20:04:05.369Z,97915.00
2022-11-20T20:06:41.724Z,97920.00
2022-11-20T20:09:13.722Z,97920.00
2022-11-20T20:11:48.153Z,97914.00
2022-11-20T20:14:19.285Z,97926.00
2022-11-20T20:16:50.151Z,97922.00
2022-11-20T20:19:21.039Z,97918.00
2022-11-20T20:21:52.125Z,97919.00
2022-11-20T20:24:22.959Z,97917.00
2022-11-20T20:26:57.993Z,97922.00
2022-11-20T20:29:29.449Z,97913.00
2022-11-20T20:32:00.891Z,97927.00
2022-11-20T20:34:32.179Z,97919.00
2022-11-20T20:37:05.159Z,97903.00
2022-11-20T20:39:36.038Z,97905.00
2022-11-20T20:42:06.978Z,97903.00
2022-11-20T20:44:56.212Z,97920.00
2022-11-20T20:47:38.892Z,97915.00
2022-11-20T20:50:12.175Z,97925.00
2022-11-20T20:52:44.100Z,97915.00
2022-11-20T20:55:15.189Z,97925.00
2022-11-20T20:57:46.134Z,97926.00
2022-11-20T21:00:17.291Z,97927.00
2022-11-20T21:02:48.124Z,97948.00
2022-11-20T21:05:19.081Z,97922.00
2022-11-20T21:08:08.324Z,97932.00
2022-11-20T21:10:39.473Z,97949.00
2022-11-20T21:13:10.362Z,97923.00
2022-11-20T21:15:42.125Z,97927.00
2022-11-20T21:18:13.042Z,97934.00
2022-11-20T21:21:04.166Z,97938.00
2022-11-20T21:23:35.643Z,97944.00
2022-11-20T21:26:08.559Z,97942.00
2022-11-20T21:28:39.579Z,97939.00
2022-11-20T21:31:22.131Z,97931.00
2022-11-20T21:33:55.036Z,97942.00
2022-11-20T21:36:28.870Z,97932.00
2022-11-20T21:38:59.942Z,97933.00
2022-11-20T21:41:31.785Z,97930.00
2022-11-20T21:44:30.084Z,97916.00
2022-11-20T21:46:57.346Z,97922.00
2022-11-20T21:49:28.265Z,97914.00
2022-11-20T21:51:59.219Z,97916.00
2022-11-20T21:54:31.335Z,97929.00
2022-11-20T21:57:02.185Z,97928.00
2022-11-20T21:59:33.182Z,97927.00
2022-11-20T22:02:04.028Z,97930.00
2022-11-20T22:04:34.925Z,97936.00
2022-11-20T22:07:06.581Z,97924.00
2022-11-20T22:09:37.541Z,97933.00
2022-11-20T22:12:08.433Z,97936.00
2022-11-20T22:14:39.354Z,97940.00
2022-11-20T22:17:14.548Z,97936.00
2022-11-20T22:19:45.400Z,97937.00
2022-11-20T22:22:16.254Z,97943.00
2022-11-20T22:24:47.098Z,97941.00
2022-11-20T22:27:17.938Z,97930.00
2022-11-20T22:29:48.786Z,97950.00
2022-11-20T22:32:19.607Z,97945.00
2022-11-20T22:34:50.463Z,97943.00
2022-11-20T22:37:21.282Z,97946.00
2022-11-20T22:39:52.121Z,97956.00
2022-11-20T22:42:22.970Z,97949.00
2022-11-20T22:44:53.837Z,97964.00
2022-11-20T22:47:24.680Z,97948.00
2022-11-20T22:49:55.522Z,97949.00
2022-11-20T22:52:26.359Z,97959.00
2022-11-20T22:54:57.225Z,97961.00
2022-11-20T22:57:28.063Z,97956.00
2022-11-20T22:59:58.932Z,97950.00
2022-11-20T23:02:29.761Z,97959.00
2022-11-20T23:05:00.622Z,97955.00
2022-11-20T23:07:35.929Z,97951.00
2022-11-20T23:10:10.078Z,97943.00
2022-11-20T23:12:40.976Z,97945.00
2022-11-20T23:15:11.845Z,97944.00
2022-11-20T23:17:42.802Z,97943.00
2022-11-20T23:20:13.951Z,97948.00
2022-11-20T23:22:44.818Z,97942.00
2022-11-20T23:25:15.735Z,97940.00
2022-11-20T23:27:46.561Z,97945.00
2022-11-20T23:30:17.563Z,97937.00
2022-11-20T23:32:48.627Z,97954.00
2022-11-20T23:35:19.540Z,97943.00
2022-11-20T23:37:50.402Z,97938.00
2022-11-20T23:40:21.315Z,97952.00
2022-11-20T23:43:10.802Z,97948.00
2022-11-20T23:45:46.073Z,97943.00
2022-11-20T23:48:18.225Z,97938.00
2022-11-20T23:50:49.999Z,97952.00
2022-11-20T23:53:22.176Z,97942.00
2022-11-20T23:55:58.593Z,97956.00
2022-11-20T23:58:35.914Z,97958.00
